TAF KTCS
KTCS 090544Z 0906/1006 34005KT P6SM FEW250 FM091800 21015G25KT P6SM SCT250=
METAR KTCS
WC KTCS
WS KTCS
WV KTCS